Time;durP1;ratioP1;P1;durP2;ratioP2;P2;SDS_P1;SDS_P2;PMS_P1;PMS_P2;Temp;Humidity;BMP_temperature;BMP_pressure;BME280_temperature;BME280_humidity;BME280_pressure;Samples;Min_cycle;Max_cycle;Signal;HPM_P1;HPM_P2
2022/10/18 00:01:28;;;;;;;12.75;9.02;;;;;;;18.00;100.00;101312.41;5073102;28;20562;-74
2022/10/18 00:03:55;;;;;;;13.75;10.40;;;;;;;18.05;100.00;101304.84;5072745;28;20231;-73
2022/10/18 00:06:21;;;;;;;12.23;8.63;;;;;;;18.06;100.00;101310.19;5072409;28;20204;-73
2022/10/18 00:08:48;;;;;;;13.65;8.57;;;;;;;18.02;100.00;101307.75;5071323;28;20690;-73
2022/10/18 00:11:14;;;;;;;12.55;9.48;;;;;;;18.02;100.00;101303.19;5072300;28;20211;-75
2022/10/18 00:13:41;;;;;;;13.63;9.70;;;;;;;18.10;100.00;101298.13;5071589;28;20308;-73
2022/10/18 00:16:12;;;;;;;11.23;9.05;;;;;;;18.10;100.00;101299.97;5072269;28;20233;-75
2022/10/18 00:18:40;;;;;;;12.47;8.50;;;;;;;18.16;100.00;101301.41;5071403;28;20184;-73
2022/10/18 00:21:08;;;;;;;11.30;8.03;;;;;;;18.12;100.00;101311.66;5072072;28;20944;-74
2022/10/18 00:23:35;;;;;;;12.50;9.20;;;;;;;18.14;100.00;101304.25;5071552;28;20471;-72
2022/10/18 00:26:06;;;;;;;13.87;9.03;;;;;;;18.18;100.00;101307.66;5075728;28;20434;-72
2022/10/18 00:28:33;;;;;;;16.95;9.80;;;;;;;18.19;100.00;101298.53;5075434;28;20429;-72
2022/10/18 00:31:09;;;;;;;16.20;10.25;;;;;;;18.19;100.00;101298.53;5076011;28;20211;-74
2022/10/18 00:33:36;;;;;;;20.00;10.73;;;;;;;18.18;100.00;101286.75;5075100;28;20224;-73
2022/10/18 00:36:04;;;;;;;15.60;9.73;;;;;;;18.09;100.00;101295.47;5074810;28;20555;-74
2022/10/18 00:38:31;;;;;;;12.63;8.63;;;;;;;18.08;100.00;101291.88;5074947;28;20638;-73
2022/10/18 00:40:57;;;;;;;12.40;8.13;;;;;;;18.11;100.00;101296.25;5074748;28;20197;-74
2022/10/18 00:43:24;;;;;;;10.88;8.15;;;;;;;18.11;100.00;101301.72;5074833;28;20257;-75
2022/10/18 00:45:50;;;;;;;16.13;10.50;;;;;;;18.01;100.00;101298.69;5074551;28;20196;-73
2022/10/18 00:48:20;;;;;;;14.20;9.00;;;;;;;18.04;100.00;101295.75;5074831;28;20927;-73
2022/10/18 00:50:48;;;;;;;13.67;9.43;;;;;;;17.99;100.00;101287.00;5074481;28;20282;-74
2022/10/18 00:53:20;;;;;;;12.90;9.75;;;;;;;17.99;100.00;101284.28;5074584;28;20466;-74
2022/10/18 00:55:47;;;;;;;12.00;9.40;;;;;;;18.04;100.00;101287.59;5075133;28;20234;-76
2022/10/18 00:58:17;;;;;;;12.13;9.25;;;;;;;18.10;100.00;101284.47;5074926;28;20193;-74
2022/10/18 01:00:43;;;;;;;17.23;10.27;;;;;;;18.11;100.00;101280.81;5076333;28;20234;-74
2022/10/18 01:03:10;;;;;;;12.17;9.57;;;;;;;18.01;100.00;101276.00;5076243;28;21552;-75
2022/10/18 01:05:42;;;;;;;14.55;9.75;;;;;;;17.92;100.00;101280.19;5078111;28;20779;-74
2022/10/18 01:08:27;;;;;;;13.57;9.90;;;;;;;17.94;100.00;101280.97;5077180;28;20195;-73
2022/10/18 01:11:06;;;;;;;14.75;9.80;;;;;;;17.95;100.00;101277.25;5075392;28;20189;-74
2022/10/18 01:13:43;;;;;;;15.63;9.75;;;;;;;17.94;100.00;101272.81;5074396;28;20570;-73
2022/10/18 01:16:18;;;;;;;14.07;10.63;;;;;;;17.94;100.00;101278.25;5074257;28;21022;-73
2022/10/18 01:18:49;;;;;;;15.30;11.05;;;;;;;17.79;100.00;101282.75;5073408;28;20199;-73
2022/10/18 01:21:24;;;;;;;14.20;9.85;;;;;;;17.78;100.00;101282.88;5073898;28;20255;-72
2022/10/18 01:24:16;;;;;;;12.88;9.90;;;;;;;17.66;100.00;101285.38;5073854;28;20220;-73
2022/10/18 01:27:05;;;;;;;14.65;10.57;;;;;;;17.58;100.00;101293.13;5074452;28;20180;-72
2022/10/18 01:29:45;;;;;;;12.80;10.70;;;;;;;17.62;100.00;101285.66;5074009;28;20598;-74
2022/10/18 01:32:17;;;;;;;16.13;11.23;;;;;;;17.59;100.00;101283.09;5074055;28;20211;-74
2022/10/18 01:34:47;;;;;;;14.93;10.77;;;;;;;17.63;100.00;101282.81;5073430;28;20217;-73
2022/10/18 01:37:16;;;;;;;15.25;11.60;;;;;;;17.64;100.00;101279.13;5072809;28;20228;-73
2022/10/18 01:39:46;;;;;;;14.13;12.15;;;;;;;17.68;100.00;101274.38;5073631;28;20219;-73
2022/10/18 01:42:17;;;;;;;13.15;10.50;;;;;;;17.69;100.00;101281.59;5073995;28;20205;-74
2022/10/18 01:44:45;;;;;;;15.07;10.18;;;;;;;17.71;100.00;101268.75;5074937;28;20223;-75
2022/10/18 01:47:15;;;;;;;15.38;11.02;;;;;;;17.67;100.00;101264.44;5076904;28;20201;-74
2022/10/18 01:49:41;;;;;;;14.55;11.15;;;;;;;17.68;100.00;101268.91;5075506;28;20562;-74
2022/10/18 01:52:12;;;;;;;15.60;10.98;;;;;;;17.69;100.00;101268.84;5076346;28;20674;-74
2022/10/18 01:54:42;;;;;;;14.05;10.82;;;;;;;17.70;100.00;101265.16;5075489;28;20307;-73
2022/10/18 01:57:15;;;;;;;14.45;9.88;;;;;;;17.71;100.00;101260.56;5073674;28;20224;-74
2022/10/18 01:59:51;;;;;;;13.18;10.60;;;;;;;17.74;100.00;101259.50;5073244;28;20204;-73
2022/10/18 02:02:32;;;;;;;15.32;10.05;;;;;;;17.62;100.00;101255.69;5073218;28;20676;-73
2022/10/18 02:05:06;;;;;;;15.50;10.05;;;;;;;17.67;100.00;101253.56;5073332;28;20185;-72
2022/10/18 02:07:40;;;;;;;17.85;11.65;;;;;;;17.68;100.00;101252.56;5073168;28;20184;-73
2022/10/18 02:10:12;;;;;;;11.90;10.45;;;;;;;17.67;100.00;101248.09;5073628;28;20192;-74
2022/10/18 02:12:43;;;;;;;12.85;10.77;;;;;;;17.63;100.00;101252.84;5073217;28;20208;-74
2022/10/18 02:15:13;;;;;;;16.60;10.68;;;;;;;17.66;100.00;101252.69;5073299;28;20189;-73
2022/10/18 02:17:41;;;;;;;19.70;12.18;;;;;;;17.71;100.00;101252.41;5072416;28;20212;-75
2022/10/18 02:20:09;;;;;;;13.80;11.25;;;;;;;17.70;100.00;101250.63;5072130;28;20201;-73
2022/10/18 02:22:38;;;;;;;17.75;11.40;;;;;;;17.68;100.00;101256.19;5072993;28;20227;-75
2022/10/18 02:25:11;;;;;;;14.70;11.85;;;;;;;17.65;100.00;101259.09;5073147;28;20201;-73
2022/10/18 02:27:38;;;;;;;13.05;10.50;;;;;;;17.64;100.00;101246.47;5072749;28;20188;-73
2022/10/18 02:30:06;;;;;;;17.00;11.52;;;;;;;17.71;100.00;101239.66;5072995;28;20574;-75
2022/10/18 02:32:38;;;;;;;13.35;11.40;;;;;;;17.74;100.00;101234.97;5071834;28;20197;-73
2022/10/18 02:35:11;;;;;;;21.23;11.80;;;;;;;17.70;100.00;101229.75;5072722;28;20189;-74
2022/10/18 02:37:39;;;;;;;13.18;10.98;;;;;;;17.69;100.00;101227.97;5072673;28;20227;-74
2022/10/18 02:40:08;;;;;;;19.05;11.13;;;;;;;17.68;100.00;101220.78;5072411;28;20206;-72
2022/10/18 02:42:36;;;;;;;12.82;11.05;;;;;;;17.70;100.00;101234.28;5075004;28;20585;-74
2022/10/18 02:45:03;;;;;;;13.15;11.02;;;;;;;17.67;100.00;101238.09;5075013;28;20215;-73
2022/10/18 02:47:30;;;;;;;15.15;11.93;;;;;;;17.65;100.00;101240.03;5074711;28;20196;-73
2022/10/18 02:49:56;;;;;;;12.27;11.05;;;;;;;17.65;100.00;101237.28;5077762;28;20208;-73
2022/10/18 02:52:24;;;;;;;17.60;11.43;;;;;;;17.64;100.00;101243.72;5077355;28;20201;-74
2022/10/18 02:54:51;;;;;;;15.93;11.15;;;;;;;17.62;100.00;101242.06;5076219;28;20204;-74
2022/10/18 02:57:17;;;;;;;12.77;10.73;;;;;;;17.62;100.00;101244.81;5075420;28;20212;-73
2022/10/18 02:59:44;;;;;;;13.68;10.02;;;;;;;17.58;100.00;101249.53;5073083;28;20210;-73
2022/10/18 03:02:10;;;;;;;13.75;11.05;;;;;;;17.54;100.00;101244.38;5074332;28;20208;-74
2022/10/18 03:04:37;;;;;;;13.05;11.65;;;;;;;17.50;100.00;101246.41;5083752;28;20217;-75
2022/10/18 03:07:03;;;;;;;12.63;11.02;;;;;;;17.50;100.00;101241.84;5084679;28;20200;-72
2022/10/18 03:09:31;;;;;;;16.38;11.73;;;;;;;17.47;100.00;101250.19;5073247;28;20589;-73
2022/10/18 03:11:58;;;;;;;13.88;11.40;;;;;;;17.48;100.00;101256.53;5071813;28;20224;-72
2022/10/18 03:14:24;;;;;;;15.00;12.05;;;;;;;17.46;100.00;101267.53;5071266;28;20606;-72
2022/10/18 03:16:51;;;;;;;13.45;10.82;;;;;;;17.41;100.00;101275.09;5072204;28;20588;-73
2022/10/18 03:19:17;;;;;;;12.50;11.30;;;;;;;17.34;100.00;101284.56;5072366;28;20208;-74
2022/10/18 03:21:44;;;;;;;15.95;12.35;;;;;;;17.24;100.00;101292.41;5073505;28;20201;-74
2022/10/18 03:24:10;;;;;;;20.58;13.18;;;;;;;17.30;100.00;101296.63;5074104;28;20220;-74
2022/10/18 03:26:38;;;;;;;17.15;12.05;;;;;;;17.39;100.00;101308.81;5079234;28;20203;-73
2022/10/18 03:29:05;;;;;;;14.50;11.90;;;;;;;17.38;100.00;101324.28;5086270;28;20196;-75
2022/10/18 03:31:32;;;;;;;18.45;14.52;;;;;;;17.34;100.00;101330.84;5094702;28;20259;-72
2022/10/18 03:33:59;;;;;;;18.30;14.90;;;;;;;17.35;100.00;101329.03;5074297;28;20212;-72
2022/10/18 03:36:25;;;;;;;18.05;14.95;;;;;;;17.36;100.00;101318.03;5071976;28;20196;-73
2022/10/18 03:38:52;;;;;;;18.27;15.73;;;;;;;17.41;100.00;101306.88;5071171;28;20203;-74
2022/10/18 03:41:19;;;;;;;20.23;15.63;;;;;;;17.47;100.00;101301.06;5071769;28;20195;-75
2022/10/18 03:43:47;;;;;;;19.58;14.02;;;;;;;17.52;100.00;101309.81;5072037;28;20224;-72
2022/10/18 03:46:14;;;;;;;14.30;12.52;;;;;;;17.61;100.00;101302.97;5072568;28;20204;-72
2022/10/18 03:48:40;;;;;;;10.13;8.30;;;;;;;17.58;100.00;101300.44;5070169;28;20192;-72
2022/10/18 03:51:07;;;;;;;9.32;6.28;;;;;;;17.60;100.00;101306.66;5062427;28;20201;-74
2022/10/18 03:53:33;;;;;;;9.45;5.55;;;;;;;17.62;100.00;101296.56;5051521;28;20236;-72
2022/10/18 03:56:00;;;;;;;10.80;5.32;;;;;;;17.63;100.00;101296.44;5054227;28;20199;-74
2022/10/18 03:58:26;;;;;;;7.28;5.85;;;;;;;17.69;100.00;101306.97;5056748;28;20594;-74
2022/10/18 04:00:55;;;;;;;7.00;5.47;;;;;;;17.73;100.00;101304.94;5081145;28;20189;-73
2022/10/18 04:03:22;;;;;;;8.90;6.03;;;;;;;17.72;100.00;101290.44;5080922;28;20657;-74
2022/10/18 04:05:49;;;;;;;7.30;4.97;;;;;;;17.72;100.00;101282.25;5080221;28;20325;-73
2022/10/18 04:08:17;;;;;;;8.98;5.10;;;;;;;17.63;100.00;101265.59;5066735;28;20209;-73
2022/10/18 04:10:44;;;;;;;8.90;7.20;;;;;;;17.60;100.00;101263.94;5060759;28;20204;-72
2022/10/18 04:13:10;;;;;;;10.55;7.97;;;;;;;17.61;100.00;101265.69;5074229;28;20224;-75
2022/10/18 04:15:37;;;;;;;10.48;7.75;;;;;;;17.61;100.00;101271.13;5082588;28;20303;-74
2022/10/18 04:18:05;;;;;;;12.75;8.57;;;;;;;17.58;100.00;101278.63;5079186;28;20259;-73
2022/10/18 04:20:31;;;;;;;8.77;7.32;;;;;;;17.55;100.00;101282.44;5078109;28;20196;-72
2022/10/18 04:22:58;;;;;;;13.95;7.93;;;;;;;17.57;100.00;101291.38;5076600;28;20231;-73
2022/10/18 04:25:25;;;;;;;11.88;7.68;;;;;;;17.60;100.00;101307.53;5077549;28;20192;-73
2022/10/18 04:27:51;;;;;;;11.15;7.82;;;;;;;17.66;100.00;101361.66;5077120;28;20193;-73
2022/10/18 04:30:18;;;;;;;9.45;6.03;;;;;;;17.43;100.00;101367.56;5081656;28;20200;-73
2022/10/18 04:32:44;;;;;;;10.80;6.13;;;;;;;17.29;100.00;101324.81;5083886;28;20563;-74
2022/10/18 04:35:12;;;;;;;10.30;6.00;;;;;;;17.29;100.00;101330.25;5080536;28;20208;-77
2022/10/18 04:37:39;;;;;;;10.73;6.75;;;;;;;17.20;100.00;101339.84;5081151;28;20218;-73
2022/10/18 04:40:07;;;;;;;9.70;7.70;;;;;;;17.07;100.00;101334.25;5078513;28;20206;-74
2022/10/18 04:42:34;;;;;;;15.90;10.38;;;;;;;17.06;100.00;101323.44;5083546;28;20196;-75
2022/10/18 04:45:00;;;;;;;8.60;6.13;;;;;;;17.11;100.00;101310.44;5079468;28;20222;-73
2022/10/18 04:47:27;;;;;;;8.48;6.03;;;;;;;17.11;100.00;101309.56;5079609;28;20193;-74
2022/10/18 04:49:53;;;;;;;7.78;6.10;;;;;;;17.17;100.00;101315.53;5077550;28;20234;-74
2022/10/18 04:52:21;;;;;;;7.40;6.20;;;;;;;17.22;100.00;101313.41;5059196;28;20213;-74
2022/10/18 04:54:47;;;;;;;7.20;6.25;;;;;;;17.24;100.00;101311.47;5057829;28;20240;-75
2022/10/18 04:57:14;;;;;;;9.27;7.30;;;;;;;17.28;100.00;101306.75;5059650;28;20225;-73
2022/10/18 04:59:41;;;;;;;19.00;16.00;;;;;;;17.27;100.00;101314.00;5080284;28;20201;-76
2022/10/18 05:02:07;;;;;;;15.98;11.40;;;;;;;17.30;100.00;101310.25;5086160;28;20205;-76
2022/10/18 05:04:34;;;;;;;12.70;10.30;;;;;;;17.32;100.00;101310.16;5082618;28;20224;-75
2022/10/18 05:07:01;;;;;;;11.98;9.65;;;;;;;17.29;100.00;101309.34;5082374;28;20495;-75
2022/10/18 05:09:29;;;;;;;16.05;9.00;;;;;;;17.31;100.00;101306.56;5079913;28;20269;-75
2022/10/18 05:11:55;;;;;;;14.93;11.20;;;;;;;17.23;100.00;101298.84;5074080;28;20200;-75
2022/10/18 05:14:22;;;;;;;43.22;31.63;;;;;;;17.29;100.00;101301.19;5075052;28;20227;-76
2022/10/18 05:16:49;;;;;;;20.20;15.13;;;;;;;17.32;100.00;101307.41;5074706;28;20677;-76
2022/10/18 05:19:15;;;;;;;20.70;13.50;;;;;;;17.32;100.00;101302.88;5074487;28;20614;-75
2022/10/18 05:21:42;;;;;;;12.60;10.15;;;;;;;17.26;100.00;101287.78;5074874;28;20200;-75
2022/10/18 05:24:10;;;;;;;13.15;9.73;;;;;;;17.28;100.00;101291.28;5075135;28;20226;-77
2022/10/18 05:26:38;;;;;;;10.13;9.05;;;;;;;17.27;100.00;101294.94;5074806;28;20693;-75
2022/10/18 05:29:05;;;;;;;15.98;7.97;;;;;;;17.26;100.00;101287.78;5074575;28;20203;-75
2022/10/18 05:31:31;;;;;;;10.93;8.48;;;;;;;17.26;100.00;101273.28;5074847;28;20201;-75
2022/10/18 05:33:58;;;;;;;10.38;8.90;;;;;;;17.25;100.00;101277.84;5074940;28;20606;-75
2022/10/18 05:36:25;;;;;;;24.65;17.77;;;;;;;17.25;100.00;101269.69;5075259;28;20584;-74
2022/10/18 05:38:52;;;;;;;14.15;11.55;;;;;;;17.26;100.00;101279.59;5074671;28;20220;-75
2022/10/18 05:41:19;;;;;;;13.52;9.90;;;;;;;17.26;100.00;101276.88;5074778;28;20574;-75
2022/10/18 05:43:46;;;;;;;10.65;8.25;;;;;;;17.20;100.00;101273.63;5074629;28;20227;-76
2022/10/18 05:46:13;;;;;;;11.60;8.07;;;;;;;17.19;100.00;101282.78;5075639;28;20358;-76
2022/10/18 05:48:40;;;;;;;10.95;8.32;;;;;;;17.18;100.00;101268.28;5077027;28;20203;-75
2022/10/18 05:51:06;;;;;;;13.05;8.32;;;;;;;17.17;100.00;101265.66;5076694;28;20582;-76
2022/10/18 05:53:33;;;;;;;11.52;8.00;;;;;;;17.13;100.00;101258.66;5074401;28;20228;-77
2022/10/18 05:56:00;;;;;;;10.23;8.02;;;;;;;17.16;100.00;101261.16;5074037;28;20705;-76
2022/10/18 05:58:27;;;;;;;11.05;7.85;;;;;;;17.17;100.00;101262.94;5073585;28;20705;-75
2022/10/18 06:00:54;;;;;;;11.27;9.60;;;;;;;17.19;100.00;101259.16;5074530;28;20200;-76
2022/10/18 06:03:21;;;;;;;19.70;12.35;;;;;;;17.22;100.00;101260.81;5076048;28;20224;-76
2022/10/18 06:05:47;;;;;;;11.07;7.13;;;;;;;17.23;100.00;101287.97;5077044;28;20470;-76
2022/10/18 06:08:14;;;;;;;10.60;6.60;;;;;;;17.21;100.00;101308.94;5075853;28;20200;-77
2022/10/18 06:10:40;;;;;;;7.75;6.82;;;;;;;17.10;100.00;101346.81;5076776;28;20256;-76
2022/10/18 06:13:07;;;;;;;8.82;7.25;;;;;;;16.85;100.00;101345.47;5075611;28;20730;-76
2022/10/18 06:15:34;;;;;;;10.98;7.43;;;;;;;16.90;100.00;101312.56;5077064;28;20197;-81
2022/10/18 06:18:01;;;;;;;11.00;7.82;;;;;;;16.93;100.00;101326.00;5077337;28;20225;-76
2022/10/18 06:20:28;;;;;;;9.32;7.82;;;;;;;16.80;100.00;101323.09;5075077;28;20200;-76
2022/10/18 06:22:54;;;;;;;10.68;6.78;;;;;;;16.86;100.00;101311.84;5074474;28;20221;-76
2022/10/18 06:25:21;;;;;;;9.98;7.07;;;;;;;16.87;100.00;101308.19;5074587;28;20201;-77
2022/10/18 06:27:47;;;;;;;8.82;6.55;;;;;;;16.87;100.00;101305.47;5073828;28;20197;-75
2022/10/18 06:30:14;;;;;;;9.35;7.90;;;;;;;16.80;100.00;101301.34;5074443;28;20200;-77
2022/10/18 06:32:40;;;;;;;11.27;8.07;;;;;;;16.92;100.00;101290.72;5078216;28;20216;-76
2022/10/18 06:35:09;;;;;;;11.80;7.47;;;;;;;17.05;100.00;101289.03;5090917;28;20272;-77
2022/10/18 06:37:37;;;;;;;9.73;7.30;;;;;;;17.14;100.00;101296.66;5088851;28;20311;-75
2022/10/18 06:40:04;;;;;;;13.65;8.40;;;;;;;17.10;100.00;101297.81;5077186;28;20287;-76
2022/10/18 06:42:31;;;;;;;12.50;8.23;;;;;;;17.06;100.00;101318.00;5075103;28;20200;-76
2022/10/18 06:44:57;;;;;;;9.50;7.75;;;;;;;16.93;100.00;101306.06;5075464;28;20204;-76
2022/10/18 06:47:24;;;;;;;11.15;7.82;;;;;;;16.96;100.00;101298.63;5080744;28;20284;-76
2022/10/18 06:49:50;;;;;;;18.10;7.40;;;;;;;17.01;100.00;101309.22;5079055;28;20693;-76
2022/10/18 06:52:19;;;;;;;13.57;7.53;;;;;;;17.13;100.00;101334.84;5078863;28;20215;-77
2022/10/18 06:54:46;;;;;;;14.52;7.60;;;;;;;16.87;100.00;101349.00;5076872;28;20254;-80
2022/10/18 06:57:12;;;;;;;13.02;7.47;;;;;;;16.80;100.00;101357.56;5076400;28;20202;-75
2022/10/18 06:59:39;;;;;;;12.43;7.95;;;;;;;16.77;100.00;101355.00;5060955;28;20240;-77
2022/10/18 07:02:05;;;;;;;9.77;7.95;;;;;;;16.68;100.00;101351.81;5068384;28;20225;-77
2022/10/18 07:04:32;;;;;;;12.63;7.40;;;;;;;16.75;100.00;101356.94;5075701;28;20241;-79
2022/10/18 07:06:58;;;;;;;9.75;7.07;;;;;;;16.78;100.00;101351.31;5069032;28;20205;-77
2022/10/18 07:09:26;;;;;;;7.85;6.18;;;;;;;16.68;100.00;101343.66;5076291;28;20289;-78
2022/10/18 07:11:53;;;;;;;11.10;6.80;;;;;;;16.79;100.00;101337.66;5077531;28;20211;-78
2022/10/18 07:14:19;;;;;;;8.25;5.90;;;;;;;16.90;100.00;101328.91;5077743;28;20261;-80
2022/10/18 07:16:46;;;;;;;8.43;6.20;;;;;;;16.98;100.00;101314.84;5077146;28;20189;-78
2022/10/18 07:19:13;;;;;;;9.90;7.30;;;;;;;17.14;100.00;101317.53;5065744;28;20231;-76
2022/10/18 07:21:40;;;;;;;11.48;7.05;;;;;;;17.25;100.00;101324.13;5054760;28;20228;-77
2022/10/18 07:24:07;;;;;;;11.05;6.30;;;;;;;17.35;100.00;101334.50;5055477;28;20228;-77
2022/10/18 07:26:35;;;;;;;8.65;6.50;;;;;;;17.37;100.00;101332.56;5056859;28;20205;-75
2022/10/18 07:29:06;;;;;;;10.75;7.18;;;;;;;17.24;100.00;101344.16;5055332;28;20197;-75
2022/10/18 07:31:33;;;;;;;9.63;7.47;;;;;;;17.26;100.00;101353.09;5054585;28;20536;-77
2022/10/18 07:33:59;;;;;;;9.25;6.45;;;;;;;17.31;100.00;101363.72;5053989;28;20221;-76
2022/10/18 07:36:26;;;;;;;8.13;5.90;;;;;;;17.28;100.00;101366.63;5056484;28;20205;-76
2022/10/18 07:38:53;;;;;;;8.13;4.60;;;;;;;17.25;100.00;101386.75;5056606;28;20231;-75
2022/10/18 07:41:20;;;;;;;9.57;5.55;;;;;;;17.28;100.00;101385.69;5056554;28;20205;-75
2022/10/18 07:43:50;;;;;;;13.45;6.57;;;;;;;17.32;100.00;101378.22;5055772;28;20633;-76
2022/10/18 07:46:18;;;;;;;11.40;5.63;;;;;;;17.41;100.00;101378.56;5055346;28;20205;-77
2022/10/18 07:48:44;;;;;;;8.43;5.15;;;;;;;17.43;100.00;101376.59;5053932;28;20585;-76
2022/10/18 07:51:11;;;;;;;13.77;5.88;;;;;;;17.63;100.00;101383.59;5052719;28;20208;-75
2022/10/18 07:53:38;;;;;;;6.40;4.65;;;;;;;17.74;100.00;101388.44;5058476;28;20718;-76
2022/10/18 07:56:10;;;;;;;10.32;5.70;;;;;;;17.96;100.00;101387.19;5055186;28;20262;-77
2022/10/18 07:58:37;;;;;;;6.95;4.90;;;;;;;18.13;100.00;101398.81;5061210;28;20204;-76
2022/10/18 08:01:07;;;;;;;13.88;5.40;;;;;;;18.17;100.00;101399.47;5074241;28;20227;-77
2022/10/18 08:03:34;;;;;;;9.75;6.40;;;;;;;18.20;100.00;101390.22;5075475;28;20713;-77
2022/10/18 08:06:01;;;;;;;8.23;5.40;;;;;;;18.53;100.00;101398.16;5075708;28;20763;-76
2022/10/18 08:08:28;;;;;;;8.80;6.80;;;;;;;18.79;100.00;101401.13;5074587;28;20534;-77
2022/10/18 08:10:55;;;;;;;15.20;8.20;;;;;;;18.87;100.00;101385.13;5074923;28;20434;-76
2022/10/18 08:13:22;;;;;;;12.63;9.83;;;;;;;18.84;100.00;101391.69;5073386;28;20465;-76
2022/10/18 08:15:48;;;;;;;14.00;8.47;;;;;;;18.98;100.00;101379.00;5074271;28;20446;-76
2022/10/18 08:18:16;;;;;;;12.77;8.80;;;;;;;18.72;100.00;101385.13;5073048;28;20860;-77
2022/10/18 08:20:44;;;;;;;14.80;9.90;;;;;;;18.63;100.00;101388.44;5072375;28;20438;-76
2022/10/18 08:23:11;;;;;;;10.13;8.53;;;;;;;18.63;100.00;101407.53;5073895;28;20561;-76
2022/10/18 08:25:38;;;;;;;14.80;9.33;;;;;;;18.69;100.00;101408.97;5073872;28;20525;-76
2022/10/18 08:28:04;;;;;;;15.70;10.37;;;;;;;18.68;100.00;101415.44;5072345;28;20496;-75
2022/10/18 08:30:31;;;;;;;11.43;9.10;;;;;;;18.82;100.00;101411.84;5073268;28;20612;-76
2022/10/18 08:32:57;;;;;;;13.13;8.97;;;;;;;18.79;100.00;101415.66;5072238;28;20459;-77
2022/10/18 08:35:25;;;;;;;13.73;9.20;;;;;;;18.84;100.00;101415.38;5073116;28;20442;-76
2022/10/18 08:37:52;;;;;;;16.40;9.03;;;;;;;18.72;100.00;101425.16;5072657;28;20439;-76
2022/10/18 08:40:19;;;;;;;14.10;9.10;;;;;;;18.82;100.00;101426.38;5073560;28;20446;-76
2022/10/18 08:42:57;;;;;;;10.70;8.63;;;;;;;18.94;100.00;101422.84;5074327;28;20431;-79
2022/10/18 08:45:25;;;;;;;9.43;7.67;;;;;;;19.11;100.00;101423.63;5074045;28;20418;-78
2022/10/18 08:47:55;;;;;;;13.70;7.60;;;;;;;19.27;100.00;101424.38;5078376;28;20466;-76
2022/10/18 08:50:26;;;;;;;9.50;6.90;;;;;;;19.36;100.00;101423.75;5078656;28;20488;-77
2022/10/18 08:52:59;;;;;;;11.97;6.23;;;;;;;19.43;100.00;101417.91;5077683;28;20466;-77
2022/10/18 08:55:34;;;;;;;11.40;6.70;;;;;;;19.54;100.00;101418.94;5078696;28;20457;-77
2022/10/18 08:58:02;;;;;;;9.10;6.10;;;;;;;19.74;100.00;101408.53;5076579;28;20414;-78
2022/10/18 09:00:33;;;;;;;8.57;6.37;;;;;;;19.91;100.00;101407.38;5077448;28;20939;-76
2022/10/18 09:03:18;;;;;;;4.63;3.90;;;;;;;19.91;100.00;101399.19;5078226;28;20477;-75
2022/10/18 09:06:04;;;;;;;5.83;4.60;;;;;;;19.40;100.00;101407.16;5076610;28;20442;-75
2022/10/18 09:08:44;;;;;;;5.47;3.47;;;;;;;19.36;100.00;101406.50;5074754;28;20849;-77
2022/10/18 09:11:27;;;;;;;11.03;5.57;;;;;;;19.46;100.00;101414.94;5075043;28;20423;-77
2022/10/18 09:14:21;;;;;;;6.90;3.77;;;;;;;19.17;100.00;101418.66;5074357;28;20464;-75
2022/10/18 09:16:56;;;;;;;6.60;3.93;;;;;;;19.18;100.00;101441.34;5074983;28;20423;-76
2022/10/18 09:19:37;;;;;;;7.37;3.93;;;;;;;19.06;100.00;101433.94;5074767;28;20500;-76
2022/10/18 09:22:12;;;;;;;6.00;3.90;;;;;;;18.94;100.00;101444.69;5074651;28;20436;-76
2022/10/18 09:24:45;;;;;;;5.70;3.67;;;;;;;19.01;100.00;101438.84;5075275;28;20492;-77
2022/10/18 09:27:16;;;;;;;4.80;3.43;;;;;;;18.95;100.00;101440.13;5074437;28;20510;-77
2022/10/18 09:29:55;;;;;;;6.63;3.10;;;;;;;19.03;100.00;101439.63;5074835;28;20427;-76
2022/10/18 09:32:31;;;;;;;3.83;2.93;;;;;;;19.33;100.00;101434.91;5075029;28;20423;-76
2022/10/18 09:35:01;;;;;;;4.20;3.23;;;;;;;19.35;100.00;101432.91;5074785;28;20446;-76
2022/10/18 09:37:30;;;;;;;4.60;2.63;;;;;;;19.22;100.00;101437.47;5074806;28;20419;-78
2022/10/18 09:40:06;;;;;;;3.20;2.83;;;;;;;19.23;100.00;101447.38;5074209;28;20517;-77
2022/10/18 09:42:38;;;;;;;4.47;2.63;;;;;;;19.23;100.00;101449.25;5072232;28;20578;-76
2022/10/18 09:45:20;;;;;;;5.90;3.03;;;;;;;19.28;100.00;101442.50;5074613;28;20514;-76
2022/10/18 09:47:53;;;;;;;4.10;2.63;;;;;;;19.49;100.00;101434.75;5074607;28;20431;-75
2022/10/18 09:50:26;;;;;;;3.67;2.57;;;;;;;19.55;100.00;101428.88;5076083;28;20418;-77
2022/10/18 09:53:01;;;;;;;5.03;2.77;;;;;;;20.01;100.00;101430.34;5074669;28;20466;-75
2022/10/18 09:55:35;;;;;;;2.87;2.00;;;;;;;20.41;100.00;101416.66;5076341;28;20434;-77
2022/10/18 09:58:05;;;;;;;7.00;1.80;;;;;;;20.43;100.00;101406.47;5073655;28;20439;-76
2022/10/18 10:00:34;;;;;;;2.63;1.50;;;;;;;20.59;100.00;101407.16;5073950;28;20485;-76
2022/10/18 10:03:07;;;;;;;3.50;1.67;;;;;;;20.72;100.00;101401.69;5074567;28;20462;-77
2022/10/18 10:05:34;;;;;;;4.70;1.67;;;;;;;20.88;100.00;101393.22;5074558;28;20431;-77
2022/10/18 10:08:01;;;;;;;3.50;1.50;;;;;;;20.92;100.00;101400.25;5074502;28;20445;-76
2022/10/18 10:10:31;;;;;;;2.37;1.40;;;;;;;21.18;100.00;101400.16;5073931;28;20439;-76
2022/10/18 10:13:05;;;;;;;2.27;1.43;;;;;;;21.36;100.00;101398.78;5081175;28;20545;-76
2022/10/18 10:15:34;;;;;;;1.80;1.23;;;;;;;21.59;100.00;101390.72;5088181;28;20706;-75
2022/10/18 10:18:04;;;;;;;2.70;1.20;;;;;;;21.29;100.00;101397.50;5075226;28;20512;-76
2022/10/18 10:20:35;;;;;;;3.00;1.10;;;;;;;21.14;100.00;101402.28;5074291;28;20483;-76
2022/10/18 10:23:07;;;;;;;3.23;1.20;;;;;;;20.89;100.00;101405.91;5074396;28;20469;-75
2022/10/18 10:25:37;;;;;;;2.53;1.40;;;;;;;21.17;100.00;101414.88;5074013;28;20804;-76
2022/10/18 10:28:11;;;;;;;4.80;1.27;;;;;;;21.47;100.00;101411.72;5072607;28;20439;-75
2022/10/18 10:30:38;;;;;;;3.60;1.40;;;;;;;21.74;100.00;101411.50;5076137;28;20427;-77
2022/10/18 10:33:06;;;;;;;3.13;1.33;;;;;;;21.97;100.00;101403.38;5075597;28;20972;-78
2022/10/18 10:35:34;;;;;;;3.50;1.03;;;;;;;22.35;100.00;101414.09;5073635;28;20447;-75
2022/10/18 10:38:01;;;;;;;1.80;1.17;;;;;;;22.69;100.00;101412.28;5073747;28;20445;-77
2022/10/18 10:40:29;;;;;;;2.00;1.20;;;;;;;22.44;100.00;101416.13;5095050;28;20473;-77
2022/10/18 10:43:21;;;;;;;4.43;1.10;;;;;;;22.24;100.00;101406.72;5096663;28;20455;-78
2022/10/18 10:46:01;;;;;;;2.00;1.30;;;;;;;22.41;100.00;101407.25;5094142;28;20470;-79
2022/10/18 10:48:31;;;;;;;3.30;1.50;;;;;;;22.20;100.00;101405.16;5088850;28;20419;-79
2022/10/18 10:51:02;;;;;;;2.93;1.00;;;;;;;23.10;100.00;101410.81;5080744;28;20418;-76
2022/10/18 10:53:35;;;;;;;2.77;1.17;;;;;;;23.15;100.00;101420.53;5077322;28;20836;-76
2022/10/18 10:56:04;;;;;;;3.87;1.87;;;;;;;23.06;100.00;101414.78;5075323;28;20442;-76
2022/10/18 10:58:36;;;;;;;2.77;1.50;;;;;;;22.82;100.00;101414.91;5074124;28;20446;-76
2022/10/18 11:01:21;;;;;;;2.60;1.33;;;;;;;22.57;100.00;101417.91;5074458;28;20430;-75
2022/10/18 11:03:50;;;;;;;2.23;1.30;;;;;;;22.48;100.00;101419.50;5074932;28;20458;-76
2022/10/18 11:06:33;;;;;;;2.00;1.20;;;;;;;22.05;100.00;101414.63;5074130;28;20445;-74
2022/10/18 11:09:03;;;;;;;2.60;1.13;;;;;;;22.46;100.00;101416.88;5071816;28;20522;-76
2022/10/18 11:11:34;;;;;;;1.93;1.07;;;;;;;22.60;100.00;101412.16;5072990;28;20443;-76
2022/10/18 11:14:09;;;;;;;1.80;1.00;;;;;;;22.99;100.00;101408.06;5073499;28;20547;-75
2022/10/18 11:16:43;;;;;;;2.27;1.40;;;;;;;23.20;100.00;101401.78;5073445;28;20456;-75
2022/10/18 11:19:29;;;;;;;4.37;1.30;;;;;;;23.41;100.00;101402.78;5073592;28;20478;-76